createdAt,value
2019-03-04T00:02:42.125Z,3.03
2019-03-04T00:07:45.367Z,3.00
2019-03-04T00:12:48.615Z,3.57
2019-03-04T00:17:51.847Z,3.60
2019-03-04T00:22:55.121Z,2.73
2019-03-04T00:27:58.363Z,3.10
2019-03-04T00:33:01.638Z,4.20
2019-03-04T00:38:04.896Z,3.37
2019-03-04T00:43:08.143Z,3.90
2019-03-04T00:48:11.446Z,3.97
2019-03-04T00:53:14.687Z,3.63
2019-03-04T00:58:17.931Z,3.37
2019-03-04T01:03:21.224Z,2.60
2019-03-04T01:08:24.455Z,2.03
2019-03-04T01:13:27.688Z,2.57
2019-03-04T01:18:30.928Z,1.63
2019-03-04T01:23:34.169Z,1.77
2019-03-04T01:28:37.433Z,1.70
2019-03-04T01:33:40.703Z,2.20
2019-03-04T01:38:44.121Z,2.30
2019-03-04T01:43:47.381Z,2.03
2019-03-04T01:48:50.653Z,2.37
2019-03-04T01:53:53.903Z,1.73
2019-03-04T01:58:57.186Z,1.57
2019-03-04T02:04:00.453Z,2.07
2019-03-04T02:09:03.882Z,2.20
2019-03-04T02:14:07.226Z,2.40
2019-03-04T02:19:10.456Z,2.40
2019-03-04T02:24:20.259Z,1.87
2019-03-04T02:29:23.510Z,2.03
2019-03-04T02:34:26.877Z,2.53
2019-03-04T02:39:30.134Z,2.37
2019-03-04T02:44:33.383Z,2.20
2019-03-04T02:49:36.675Z,1.83
2019-03-04T02:54:39.933Z,2.63
2019-03-04T02:59:43.227Z,2.03
2019-03-04T03:04:46.537Z,1.97
2019-03-04T03:09:50.078Z,1.97
2019-03-04T03:14:53.344Z,1.90
2019-03-04T03:19:56.663Z,2.47
2019-03-04T03:25:00.441Z,2.30
2019-03-04T03:30:03.694Z,1.90
2019-03-04T03:35:08.799Z,2.37
2019-03-04T03:40:11.865Z,1.80
2019-03-04T03:45:15.210Z,2.13
2019-03-04T03:50:18.583Z,1.93
2019-03-04T03:55:21.817Z,1.70
2019-03-04T04:00:25.214Z,1.52
2019-03-04T04:05:28.463Z,2.20
2019-03-04T04:10:31.728Z,2.30
2019-03-04T04:15:34.954Z,2.00
2019-03-04T04:20:38.357Z,2.17
2019-03-04T04:25:41.595Z,1.90
2019-03-04T04:30:44.945Z,1.80
2019-03-04T04:35:48.173Z,1.67
2019-03-04T04:40:51.436Z,1.70
2019-03-04T04:45:54.685Z,1.83
2019-03-04T04:50:57.934Z,2.03
2019-03-04T04:56:01.195Z,2.03
2019-03-04T05:01:04.462Z,2.20
2019-03-04T05:06:07.841Z,1.73
2019-03-04T05:11:11.065Z,2.03
2019-03-04T05:16:14.453Z,1.63
2019-03-04T05:21:17.871Z,1.93
2019-03-04T05:26:21.093Z,1.60
2019-03-04T05:31:24.378Z,2.13
2019-03-04T05:36:27.667Z,2.07
2019-03-04T05:41:30.923Z,1.90
2019-03-04T05:46:34.170Z,1.80
2019-03-04T05:51:37.442Z,1.73
2019-03-04T05:56:40.739Z,1.63
2019-03-04T06:01:51.797Z,2.30
2019-03-04T06:06:58.458Z,1.77
2019-03-04T06:12:01.735Z,1.90
2019-03-04T06:17:05.044Z,2.22
2019-03-04T06:22:08.351Z,2.43
2019-03-04T06:27:11.604Z,2.07
2019-03-04T06:32:14.865Z,1.87
2019-03-04T06:37:18.102Z,1.40
2019-03-04T06:42:21.380Z,1.37
2019-03-04T06:47:24.616Z,2.10
2019-03-04T06:52:27.851Z,1.67
2019-03-04T06:57:36.068Z,4.57
2019-03-04T07:02:39.382Z,2.23
2019-03-04T07:07:42.614Z,2.30
2019-03-04T07:12:45.883Z,1.93
2019-03-04T07:17:49.118Z,2.10
2019-03-04T07:22:52.364Z,2.17
2019-03-04T07:27:55.730Z,1.93
2019-03-04T07:32:59.050Z,1.40
2019-03-04T07:38:14.674Z,1.97
2019-03-04T07:43:18.020Z,1.43
2019-03-04T07:48:21.253Z,1.50
2019-03-04T07:53:24.578Z,2.37
2019-03-04T07:58:27.877Z,1.27
2019-03-04T08:03:31.201Z,2.10
2019-03-04T08:08:36.333Z,1.60
2019-03-04T08:13:43.493Z,1.53
2019-03-04T08:18:46.758Z,1.83
2019-03-04T08:23:50.056Z,1.40
2019-03-04T08:28:58.654Z,1.00
2019-03-04T08:33:59.799Z,1.13
2019-03-04T08:39:05.281Z,1.37
2019-03-04T08:44:08.550Z,1.27
2019-03-04T08:49:11.858Z,1.33
2019-03-04T08:54:15.191Z,1.93
2019-03-04T08:59:18.463Z,1.10
2019-03-04T09:04:21.758Z,1.07
2019-03-04T09:09:25.094Z,1.30
2019-03-04T09:14:28.442Z,1.40
2019-03-04T09:19:31.771Z,1.57
2019-03-04T09:24:35.078Z,1.13
2019-03-04T09:29:38.407Z,1.60
2019-03-04T09:34:41.724Z,1.70
2019-03-04T09:39:44.949Z,1.30
2019-03-04T09:44:48.186Z,1.17
2019-03-04T09:49:51.540Z,1.47
2019-03-04T09:54:54.913Z,1.60
2019-03-04T09:59:58.255Z,1.27
2019-03-04T10:05:10.506Z,1.00
2019-03-04T10:10:31.830Z,0.93
2019-03-04T10:18:52.162Z,1.60
2019-03-04T10:24:21.311Z,0.93
2019-03-04T10:29:34.591Z,0.70
2019-03-04T10:34:58.602Z,1.03
2019-03-04T10:41:19.555Z,1.67
2019-03-04T10:46:55.792Z,1.63
2019-03-04T10:51:59.075Z,1.40
2019-03-04T10:57:02.316Z,1.25
2019-03-04T11:02:05.677Z,1.53
2019-03-04T11:07:08.993Z,0.63
2019-03-04T11:12:14.099Z,1.30
2019-03-04T11:17:15.620Z,0.50
2019-03-04T11:22:18.948Z,0.80
2019-03-04T11:27:22.297Z,0.40
2019-03-04T11:32:28.762Z,0.37
2019-03-04T11:37:32.045Z,0.40
2019-03-04T11:42:35.327Z,0.20
2019-03-04T11:47:38.658Z,0.30
2019-03-04T11:52:42.084Z,0.28
2019-03-04T11:57:45.358Z,0.40
2019-03-04T12:02:48.761Z,0.30
2019-03-04T12:07:52.219Z,0.30
2019-03-04T12:12:56.624Z,0.23
2019-03-04T12:17:59.975Z,0.10
2019-03-04T12:23:03.293Z,0.30
2019-03-04T12:28:06.580Z,0.40
2019-03-04T12:33:10.587Z,0.20
2019-03-04T12:38:13.910Z,0.40
2019-03-04T12:43:17.153Z,0.30
2019-03-04T12:48:21.523Z,0.30
2019-03-04T12:53:24.806Z,0.73
2019-03-04T12:58:28.062Z,0.77
2019-03-04T13:03:31.322Z,0.07
2019-03-04T13:08:34.636Z,0.80
2019-03-04T13:13:37.980Z,0.20
2019-03-04T13:18:41.262Z,0.37
2019-03-04T13:23:44.566Z,0.30
2019-03-04T13:28:47.909Z,0.13
2019-03-04T13:33:51.181Z,0.20
2019-03-04T13:38:54.477Z,0.40
2019-03-04T13:43:57.805Z,0.50
2019-03-04T13:49:01.076Z,0.17
2019-03-04T13:54:04.396Z,0.33
2019-03-04T13:59:07.723Z,0.20
2019-03-04T14:04:10.953Z,0.47
2019-03-04T14:09:14.254Z,0.63
2019-03-04T14:14:17.557Z,0.40
2019-03-04T14:19:20.823Z,0.37
2019-03-04T14:24:24.162Z,0.30
2019-03-04T14:29:27.479Z,0.30
2019-03-04T14:34:30.805Z,0.20
2019-03-04T14:39:34.069Z,0.73
2019-03-04T14:44:37.386Z,0.10
2019-03-04T14:49:44.766Z,0.67
2019-03-04T14:54:43.900Z,0.60
2019-03-04T14:59:47.202Z,0.60
2019-03-04T15:04:50.441Z,0.60
2019-03-04T15:09:53.759Z,0.23
2019-03-04T15:14:57.021Z,0.53
2019-03-04T15:20:08.984Z,0.80
2019-03-04T15:25:03.940Z,0.77
2019-03-04T15:30:08.969Z,0.80
2019-03-04T15:35:12.396Z,0.10
2019-03-04T15:40:15.816Z,0.80
2019-03-04T15:45:19.191Z,0.42
2019-03-04T15:50:22.471Z,0.50
2019-03-04T15:55:25.834Z,0.40
2019-03-04T16:00:29.108Z,1.33
2019-03-04T16:05:32.507Z,0.67
2019-03-04T16:10:37.150Z,0.97
2019-03-04T16:15:41.763Z,0.30
2019-03-04T16:20:45.147Z,1.10
2019-03-04T16:25:48.579Z,1.00
2019-03-04T16:30:52.030Z,0.67
2019-03-04T16:35:55.343Z,0.57
2019-03-04T16:40:58.612Z,0.67
2019-03-04T16:46:01.907Z,1.30
2019-03-04T16:51:05.392Z,2.37
2019-03-04T16:56:08.694Z,1.17
2019-03-04T17:01:12.500Z,0.57
2019-03-04T17:06:17.348Z,0.80
2019-03-04T17:11:19.189Z,0.70
2019-03-04T17:16:22.483Z,0.80
2019-03-04T17:21:25.822Z,0.30
2019-03-04T17:26:29.202Z,1.37
2019-03-04T17:31:32.810Z,1.40
2019-03-04T17:36:36.126Z,1.67
2019-03-04T17:41:39.453Z,0.60
2019-03-04T17:46:42.739Z,0.37
2019-03-04T17:51:46.026Z,0.33
2019-03-04T17:56:50.015Z,0.27
2019-03-04T18:01:53.392Z,0.30
2019-03-04T18:06:56.690Z,0.10
2019-03-04T18:11:59.993Z,1.33
2019-03-04T18:17:03.353Z,0.40
2019-03-04T18:22:06.730Z,0.83
2019-03-04T18:27:16.166Z,0.30
2019-03-04T18:33:34.962Z,0.30
2019-03-04T18:39:05.775Z,0.33
2019-03-04T18:44:20.495Z,0.10
2019-03-04T18:49:24.161Z,1.10
2019-03-04T18:54:27.517Z,0.10
2019-03-04T18:59:31.937Z,0.33
2019-03-04T19:04:35.685Z,0.30
2019-03-04T19:09:39.843Z,0.10
2019-03-04T19:14:43.465Z,0.43
2019-03-04T19:19:46.934Z,0.47
2019-03-04T19:24:50.349Z,0.20
2019-03-04T19:29:53.737Z,0.63
2019-03-04T19:34:57.541Z,0.43
2019-03-04T19:40:01.123Z,0.80
2019-03-04T19:45:05.014Z,0.60
2019-03-04T19:50:08.966Z,0.97
2019-03-04T19:55:12.765Z,0.77
2019-03-04T20:00:18.177Z,0.93
2019-03-04T20:05:21.651Z,1.00
2019-03-04T20:10:25.115Z,0.37
2019-03-04T20:15:28.442Z,0.20
2019-03-04T20:20:32.137Z,0.90
2019-03-04T20:25:35.500Z,0.90
2019-03-04T20:30:38.937Z,1.20
2019-03-04T20:35:42.309Z,0.80
2019-03-04T20:40:45.769Z,1.05
2019-03-04T20:45:49.351Z,0.60
2019-03-04T20:50:52.681Z,1.92
2019-03-04T20:55:56.010Z,1.77
2019-03-04T21:00:59.440Z,0.73
2019-03-04T21:06:03.080Z,0.80
2019-03-04T21:11:06.647Z,2.30
2019-03-04T21:16:10.024Z,0.63
2019-03-04T21:21:13.358Z,1.00
2019-03-04T21:26:25.842Z,0.77
2019-03-04T21:31:36.474Z,0.80
2019-03-04T21:36:48.579Z,1.37
2019-03-04T21:42:01.089Z,0.80
2019-03-04T21:47:25.953Z,1.23
2019-03-04T21:52:51.692Z,0.90
2019-03-04T21:57:56.594Z,0.80
2019-03-04T22:03:35.348Z,0.90
2019-03-04T22:08:39.102Z,1.37
2019-03-04T22:13:42.825Z,1.40
2019-03-04T22:18:46.870Z,1.60
2019-03-04T22:23:50.162Z,2.43
2019-03-04T22:28:54.799Z,1.10
2019-03-04T22:33:58.291Z,1.47
2019-03-04T22:39:01.709Z,2.37
2019-03-04T22:44:05.447Z,0.53
2019-03-04T22:49:08.854Z,0.90
2019-03-04T22:54:12.373Z,0.80
2019-03-04T22:59:16.033Z,1.10
2019-03-04T23:04:23.178Z,1.37
2019-03-04T23:09:27.837Z,1.37
2019-03-04T23:14:31.256Z,1.33
2019-03-04T23:19:34.666Z,0.47
2019-03-04T23:24:37.894Z,1.30
2019-03-04T23:29:41.267Z,1.00
2019-03-04T23:34:44.713Z,1.30
2019-03-04T23:39:47.974Z,1.30
2019-03-04T23:44:51.439Z,1.60
2019-03-04T23:50:25.221Z,0.87
2019-03-04T23:55:28.485Z,1.30
